Chipotle Mexican Grill, Inc. (NYSE:CMG)

CAPS Rating: 3 out of 5

A fast-casual restaurant chain, Chipotle Mexican Grill focuses on fresh and organic ingredients, tempting diners with gigantic burritos, salads, and more.

Results 1 - 99 of 3503 : 1 2 3 4 5 6 7 8 9 10 Next »
Top
Pick
Member Name Member
Rating
Start
Date
Call Time
Frame
Start
Price
Stock
Gain
Index
Gain
Score Commentary
GrapeFool 20.17 4/17/2014 Outperform 5Y $533.98 -2.69% -0.17% -2.52 0 Comment
Silvermarmot < 20 4/17/2014 Outperform 5Y $525.70 -1.16% -0.17% -0.99 0 Comment
lathe144 61.69 4/17/2014 Underperform 5Y $537.72 -3.37% -0.09% +3.28 0 Comment
boozbot < 20 4/17/2014 Outperform 5Y $579.02 -10.26% 0% -10.26 0 Comment
egustafson58 < 20 4/16/2014 Outperform 1Y $543.91 -4.47% +0.61% -5.08 0 Comment
countomc 99.08 4/15/2014 Underperform 3M $544.83 -4.63% +1.58% +6.21 0 Comment
This player feels very strongly about this pick and has marked it a Top Pick. Top Picks do not affect a player’s score. TimeToBuy 82.61 5/7/2009 4/15/2014 Outperform 5Y $81.48 +537.71% +102.49% +435.22 0 Comment
judyka < 20 4/14/2014 Outperform 5Y $541.28 -4.00% +1.82% -5.83 0 Comment
Csarankhi 40.01 4/14/2014 Outperform 3M $540.49 -3.86% +1.89% -5.75 0 Comment
dmsoward 40.11 4/14/2014 Outperform 3Y $540.49 -3.86% +1.89% -5.75 0 Comment
soonerdad 83.60 4/14/2014 Underperform 5Y $540.49 -3.86% +1.89% +5.75 0 Comment
Garza 40.13 4/14/2014 Outperform 5Y $540.49 -3.86% +1.89% -5.75 0 Comment
JAZMIN7 35.74 4/14/2014 Outperform 5Y $540.49 -3.86% +1.89% -5.75 0 Comment
This player feels very strongly about this pick and has marked it a Top Pick. Top Picks do not affect a player’s score. TMFBritcodeftw 53.77 12/21/2009 4/11/2014 Outperform 5Y $89.65 +479.60% +68.28% +411.32 0 Comment
grmind 69.18 4/10/2014 Outperform 5Y $550.01 -5.53% -0.11% -5.42 0 Comment
rrmcpa 47.01 4/10/2014 Outperform 5Y $555.09 -6.39% -0.37% -6.02 0 Comment
ultrasounddoc < 20 4/9/2014 Underperform 5Y $552.26 -5.91% +0.43% +6.34 0 Comment
JitterbugBoy 29.53 8/24/2011 4/8/2014 Outperform 1Y $294.95 +76.17% +60.42% +15.75 0 Comment
GemHater 58.66 4/7/2014 Outperform 1Y $534.05 -2.70% +1.10% -3.80 0 Comment
CaptainFly 20.33 4/7/2014 Outperform 5Y $550.00 -5.53% +0.26% -5.79 0 Comment
upatthewire88 21.16 4/3/2014 Outperform 5Y $579.02 -10.26% -1.47% -8.79 0 Comment
SSchey 90.32 2/28/2013 4/2/2014 Outperform 1Y $318.40 +63.19% +22.49% +40.71 0 Comment
OnlyTrueValue 28.71 4/2/2014 Outperform 5Y $582.55 -10.80% -1.12% -9.68 0 Comment
chushogi 70.72 4/2/2014 Outperform 5Y $582.55 -10.80% -1.12% -9.68 0 Comment
stan957 23.32 4/1/2014 Outperform NS $578.28 -10.15% -0.86% -9.28 0 Comment
brustw < 20 4/1/2014 Outperform 5Y $577.13 -9.97% -0.72% -9.25 0 Comment
RareFruitGrower < 20 4/1/2014 Outperform 3M $568.01 -8.52% -0.66% -7.87 0 Comment
iammnot 72.87 3/31/2014 Underperform 5Y $568.01 -8.52% -0.30% +8.22 0 Comment
Bearbob63 66.92 3/31/2014 Underperform 5Y $570.74 -8.96% -0.14% +8.82 0 Comment
12371 99.53 3/31/2014 Underperform 5Y $570.74 -8.96% -0.14% +8.82 0 Comment
soonerbear98 < 20 3/31/2014 Underperform 5Y $570.74 -8.96% -0.14% +8.82 0 Comment
PurpleHuskies 98.74 3/28/2014 Outperform 5Y $568.83 -8.65% +0.15% -8.80 0 Comment
JEazy 36.78 3/26/2014 Outperform 5Y $573.17 -9.34% -0.29% -9.05 0 Comment
jackjjr 80.83 3/25/2014 Outperform 5Y $567.91 -8.50% +0.56% -9.06 0 Comment
maxundmoritz 35.92 3/25/2014 Outperform 5Y $590.12 -11.95% +0.01% -11.96 0 Comment
This player feels very strongly about this pick and has marked it a Top Pick. Top Picks do not affect a player’s score. pleonexia4ROE 35.41 1/8/2014 3/24/2014 Outperform 5Y $529.50 -1.87% +1.60% -3.47 0 Comment
motto1628 < 20 3/24/2014 Outperform 1Y $588.00 -11.63% +0.46% -12.09 1 Comment
Floridasharks 64.30 3/24/2014 Outperform 5Y $610.21 -14.85% -0.23% -14.62 0 Comment
Sexybabe1961 < 20 3/24/2014 Outperform 5Y $610.21 -14.85% -0.23% -14.62 0 Comment
jb2un 20.47 3/21/2014 Outperform 5Y $610.50 -14.89% -0.73% -14.15 0 Comment
notUSA 22.62 3/20/2014 Outperform 5Y $606.40 -14.31% -0.43% -13.88 0 Comment
AlexeiVronsky 81.89 3/19/2014 Outperform 3W $594.81 -12.64% -0.73% -11.91 0 Comment
Velaryan10 23.42 3/19/2014 Outperform 3M $588.52 -11.71% -0.70% -11.01 0 Comment
foteoz 81.21 3/17/2014 Outperform 3M $580.46 -10.48% +0.43% -10.91 0 Comment
gfischer13 92.48 3/13/2014 Underperform 5Y $583.56 -10.96% +0.20% +11.16 0 Comment
johndmcclure < 20 3/13/2014 Outperform 5Y $584.92 -11.17% -0.26% -10.91 0 Comment
Nagesh < 20 3/13/2014 Outperform 3Y $589.47 -11.85% -0.77% -11.08 0 Comment
Barrato < 20 3/12/2014 Underperform 1Y $587.72 -11.59% -0.41% +11.18 0 Comment
fishers2tall < 20 3/12/2014 Outperform 5Y $587.04 -11.49% -0.23% -11.26 0 Comment
RideWildfire 41.40 3/12/2014 Outperform 5Y $586.73 -11.44% -0.24% -11.20 1 Comment
penywise 77.03 7/14/2008 3/12/2014 Outperform 5Y $73.08 +611.02% +53.39% +557.63 0 Comment
TraderTFJ2 24.81 3/10/2014 Outperform 3M $589.82 -11.90% -0.82% -11.08 0 Comment
CarthAnne 52.02 3/10/2014 Outperform 5Y $589.82 -11.90% -0.82% -11.08 1 Comment
singhisking00 36.76 3/10/2014 Outperform 5Y $589.82 -11.90% -0.82% -11.08 0 Comment
TMFTycoon < 20 3/7/2014 Outperform 5Y $592.78 -12.34% -0.85% -11.50 1 Comment
in2b8or 61.79 3/6/2014 Outperform 5Y $584.10 -11.04% -0.97% -10.07 0 Comment
kennykramer < 20 3/6/2014 Outperform 5Y $584.10 -11.04% -0.97% -10.07 0 Comment
dschmedeke < 20 3/6/2014 Outperform 3Y $584.10 -11.04% -0.97% -10.07 1 Comment
reidwolski 32.07 3/5/2014 Outperform 5Y $581.59 -10.66% -0.69% -9.97 1 Comment
douglasscott2005 50.27 3/4/2014 Outperform 5Y $561.48 -7.46% -0.19% -7.26 0 Comment
Db0004 < 20 3/3/2014 Outperform 5Y $561.00 -7.38% +0.92% -8.30 0 Comment
345adf 22.78 3/3/2014 Outperform 5Y $561.00 -7.38% +0.92% -8.30 0 Comment
williams3 75.74 3/3/2014 Outperform 3Y $561.00 -7.38% +0.92% -8.30 0 Comment
This player feels very strongly about this pick and has marked it a Top Pick. Top Picks do not affect a player’s score. illstabyou 84.58 1/25/2007 3/1/2014 Outperform 5Y $57.88 +797.74% +38.11% +759.62 1 Comment
This player feels very strongly about this pick and has marked it a Top Pick. Top Picks do not affect a player’s score. SlothropsMonkey 84.01 2/2/2007 2/28/2014 Outperform 5Y $60.18 +763.43% +36.70% +726.73 1 Comment
PestAssassin0065 46.18 2/26/2014 Outperform 3Y $562.72 -7.66% +0.50% -8.16 0 Comment
jsmooth1134 26.37 2/26/2014 Outperform 3Y $557.06 -6.72% +0.69% -7.41 0 Comment
BrokenBran < 20 2/25/2014 Outperform 5Y $554.47 -6.29% +0.97% -7.25 0 Comment
helicopterfool 25.28 2/25/2014 Outperform 5Y $555.34 -6.43% +0.76% -7.20 0 Comment
HEEpikur 79.26 2/25/2014 Outperform 5Y $557.05 -6.72% +0.74% -7.46 0 Comment
TeenInvestor10 80.13 2/24/2014 Outperform 3M $555.46 -6.45% +0.32% -6.78 0 Comment
runningrealtor < 20 2/24/2014 Outperform 3Y $550.95 -5.69% +1.14% -6.83 1 Comment
BrianFerguson 87.57 12/15/2010 2/22/2014 Outperform 3Y $231.80 +124.16% +49.52% +74.64 0 Comment
TMFBuck 74.10 4/27/2010 2/22/2014 Underperform 3Y $140.12 +270.83% +56.39% -214.44 1 Comment
noryakerson 96.38 2/21/2014 Outperform 5Y $554.56 -6.30% +0.88% -7.19 0 Comment
thebestinvestor 27.73 2/21/2014 Outperform 5Y $551.38 -5.76% +1.03% -6.79 0 Comment
PenchyOne 63.55 2/20/2014 Outperform 5Y $551.11 -5.72% +1.70% -7.42 1 Comment
This player feels very strongly about this pick and has marked it a Top Pick. Top Picks do not affect a player’s score. Charlotte49er 82.07 6/18/2013 2/19/2014 Outperform 5Y $371.31 +39.94% +12.62% +27.32 1 Comment
germanjuggler 69.11 2/19/2014 Outperform 5Y $553.82 -6.18% +1.43% -7.61 0 Comment
Slade366 68.87 2/19/2014 Underperform 5Y $553.82 -6.18% +1.43% +7.61 0 Comment
bwbuch 36.44 2/14/2014 Outperform 5Y $551.82 -5.84% +1.15% -6.99 0 Comment
RCollier22 68.68 2/14/2014 Outperform 5Y $552.00 -5.87% +1.94% -7.81 0 Comment
TMFJebbo 82.15 2/14/2014 Outperform 5Y $552.00 -5.87% +1.94% -7.81 0 Comment
bdselbach < 20 2/14/2014 Outperform 1Y $552.00 -5.87% +1.94% -7.81 0 Comment
cmart2410 23.95 2/14/2014 Outperform 3Y $552.00 -5.87% +1.94% -7.81 0 Comment
dcg014 < 20 2/14/2014 Outperform 5Y $554.24 -6.25% +1.94% -8.18 1 Comment
captious < 20 2/14/2014 Outperform 5Y $554.24 -6.25% +1.94% -8.18 0 Comment
bckearns 87.08 2/13/2014 Outperform 5Y $557.21 -6.75% +1.93% -8.68 0 Comment
riffle10 95.06 9/25/2008 2/12/2014 Outperform 5Y $57.83 +798.51% +57.94% +740.57 1 Comment
This player feels very strongly about this pick and has marked it a Top Pick. Top Picks do not affect a player’s score. amydk 66.83 8/10/2012 2/11/2014 Outperform 5Y $296.29 +75.37% +33.10% +42.27 0 Comment
hobbes31 < 20 2/11/2014 Outperform 5Y $547.66 -5.12% +3.40% -8.52 0 Comment
gio815 24.43 2/10/2014 Outperform 5Y $548.00 -5.18% +3.68% -8.86 0 Comment
LogicvsEmotion 25.89 2/10/2014 Outperform 5Y $548.00 -5.18% +3.68% -8.86 0 Comment
PatientJC 31.09 2/10/2014 Outperform 5Y $547.06 -5.02% +3.74% -8.76 1 Comment
bradrimm 21.37 2/10/2014 Outperform 5Y $552.48 -5.95% +3.72% -9.67 1 Comment
bakermre < 20 2/10/2014 Outperform 1Y $552.48 -5.95% +3.72% -9.67 0 Comment
JimNewman75 < 20 2/10/2014 Underperform 1Y $552.48 -5.95% +3.72% +9.67 1 Comment
jjhannam < 20 2/10/2014 Outperform 5Y $552.48 -5.95% +3.72% -9.67 1 Comment
jkaslowski 82.58 2/6/2014 Outperform 1Y $542.61 -4.24% +6.16% -10.40 0 Comment

Featured Broker Partners


Advertisement